AXB1780 VOML-VIDP
Flight info
| Callsign | AXB1780 |
|---|---|
| Flight time | 2h 36m |
| Altitude | 38000 |
| Route | MML Q12 BBB G208 APANO Z1 QQZ A347 UKASO |
| Aircraft | B738/M-SDE2E3FGHIRWXY/LB1 |
Departure
| Time | 2026-04-29 04:20 |
|---|---|
| Airport | Mangaluru International Airport (VOML) |
Arrival
| Time | 2026-04-29 06:57 |
|---|---|
| Airport | Indira Gandhi International Airport (VIDP) |
| Time | Latitude | Longitude | Altitude | Speed | Heading |
|---|---|---|---|---|---|
| 2026-04-29 03:39 | 12.94949 | 74.87249 | 318 ft | 0 kts | 351° |
| 2026-04-29 04:10 | 12.94945 | 74.87250 | 318 ft | 2 kts | 351° |
| 2026-04-29 04:11 | 12.94933 | 74.87252 | 318 ft | 2 kts | 351° |
| 2026-04-29 04:11 | 12.94921 | 74.87254 | 315 ft | 2 kts | 351° |
| 2026-04-29 04:11 | 12.94910 | 74.87256 | 316 ft | 2 kts | 351° |
| 2026-04-29 04:11 | 12.94898 | 74.87257 | 316 ft | 2 kts | 352° |
| 2026-04-29 04:12 | 12.94883 | 74.87260 | 315 ft | 2 kts | 352° |
| 2026-04-29 04:12 | 12.94868 | 74.87258 | 315 ft | 2 kts | 43° |
| 2026-04-29 04:12 | 12.94861 | 74.87250 | 314 ft | 0 kts | 59° |
| 2026-04-29 04:13 | 12.94872 | 74.87268 | 317 ft | 8 kts | 59° |
| 2026-04-29 04:14 | 12.94914 | 74.87342 | 318 ft | 14 kts | 59° |
| 2026-04-29 04:14 | 12.94966 | 74.87432 | 318 ft | 15 kts | 59° |
| 2026-04-29 04:14 | 12.95013 | 74.87516 | 318 ft | 16 kts | 63° |
| 2026-04-29 04:14 | 12.95027 | 74.87628 | 317 ft | 16 kts | 63° |
| 2026-04-29 04:15 | 12.95084 | 74.87724 | 317 ft | 16 kts | 58° |
| 2026-04-29 04:15 | 12.95147 | 74.87827 | 318 ft | 19 kts | 58° |
| 2026-04-29 04:15 | 12.95224 | 74.87949 | 318 ft | 20 kts | 57° |
| 2026-04-29 04:15 | 12.95196 | 74.88016 | 318 ft | 7 kts | 150° |
| 2026-04-29 04:16 | 12.95194 | 74.88018 | 318 ft | 0 kts | 150° |
| 2026-04-29 04:17 | 12.95191 | 74.88019 | 318 ft | 2 kts | 150° |
| 2026-04-29 04:17 | 12.95148 | 74.88044 | 318 ft | 13 kts | 150° |
| 2026-04-29 04:17 | 12.95132 | 74.88131 | 318 ft | 18 kts | 58° |
| 2026-04-29 04:17 | 12.95213 | 74.88266 | 319 ft | 26 kts | 58° |
| 2026-04-29 04:18 | 12.95329 | 74.88455 | 317 ft | 36 kts | 58° |
| 2026-04-29 04:18 | 12.95472 | 74.88693 | 315 ft | 42 kts | 58° |
| 2026-04-29 04:18 | 12.95636 | 74.88963 | 315 ft | 47 kts | 58° |
| 2026-04-29 04:18 | 12.95811 | 74.89254 | 318 ft | 49 kts | 58° |
| 2026-04-29 04:19 | 12.95966 | 74.89483 | 319 ft | 29 kts | 36° |
| 2026-04-29 04:19 | 12.96003 | 74.89575 | 318 ft | 9 kts | 189° |
| 2026-04-29 04:19 | 12.95985 | 74.89543 | 319 ft | 0 kts | 237° |
| 2026-04-29 04:20 | 12.95843 | 74.89306 | 318 ft | 82 kts | 239° |
| 2026-04-29 04:20 | 12.95400 | 74.88574 | 318 ft | 157 kts | 238° |
| 2026-04-29 04:20 | 12.94752 | 74.87552 | 834 ft | 181 kts | 234° |
| 2026-04-29 04:20 | 12.93988 | 74.86424 | 1469 ft | 202 kts | 236° |
| 2026-04-29 04:21 | 12.93175 | 74.85216 | 2313 ft | 208 kts | 237° |
| 2026-04-29 04:21 | 12.92393 | 74.83949 | 2900 ft | 221 kts | 244° |
| 2026-04-29 04:21 | 12.91971 | 74.82397 | 3482 ft | 233 kts | 268° |
| 2026-04-29 04:21 | 12.92180 | 74.80663 | 3981 ft | 256 kts | 287° |
| 2026-04-29 04:22 | 12.93057 | 74.79084 | 4710 ft | 265 kts | 311° |
| 2026-04-29 04:22 | 12.94546 | 74.77902 | 5365 ft | 276 kts | 333° |
| 2026-04-29 04:22 | 12.96339 | 74.77165 | 6209 ft | 279 kts | 342° |
| 2026-04-29 04:22 | 12.98205 | 74.76564 | 7017 ft | 283 kts | 345° |
| 2026-04-29 04:23 | 13.00093 | 74.75996 | 7820 ft | 284 kts | 346° |
| 2026-04-29 04:23 | 13.01992 | 74.75449 | 8710 ft | 285 kts | 347° |
| 2026-04-29 04:23 | 13.03924 | 74.74929 | 9429 ft | 292 kts | 348° |
| 2026-04-29 04:23 | 13.05923 | 74.74404 | 10086 ft | 299 kts | 346° |
| 2026-04-29 04:24 | 13.07887 | 74.73667 | 10877 ft | 302 kts | 340° |
| 2026-04-29 04:24 | 13.09846 | 74.72876 | 11651 ft | 303 kts | 344° |
| 2026-04-29 04:24 | 13.11854 | 74.72181 | 12360 ft | 307 kts | 346° |
| 2026-04-29 04:24 | 13.13917 | 74.71521 | 13006 ft | 314 kts | 347° |
| 2026-04-29 04:25 | 13.16016 | 74.70783 | 13576 ft | 325 kts | 343° |
| 2026-04-29 04:25 | 13.18197 | 74.69990 | 13985 ft | 338 kts | 344° |
| 2026-04-29 04:25 | 13.20424 | 74.69190 | 14599 ft | 341 kts | 343° |
| 2026-04-29 04:25 | 13.22668 | 74.68387 | 15265 ft | 345 kts | 343° |
| 2026-04-29 04:26 | 13.24990 | 74.67561 | 15501 ft | 361 kts | 342° |
| 2026-04-29 04:26 | 13.27367 | 74.66686 | 15868 ft | 372 kts | 341° |
| 2026-04-29 04:26 | 13.29807 | 74.65766 | 16412 ft | 377 kts | 341° |
| 2026-04-29 04:26 | 13.32262 | 74.64847 | 17136 ft | 375 kts | 341° |
| 2026-04-29 04:27 | 13.33886 | 74.64235 | 17621 ft | 375 kts | 340° |
| 2026-04-29 04:27 | 13.36367 | 74.63296 | 17950 ft | 385 kts | 340° |
| 2026-04-29 04:27 | 13.38890 | 74.62323 | 18446 ft | 387 kts | 339° |
| 2026-04-29 04:27 | 13.41388 | 74.61347 | 19018 ft | 386 kts | 339° |
| 2026-04-29 04:28 | 13.44852 | 74.59997 | 19191 ft | 403 kts | 339° |
| 2026-04-29 04:28 | 13.47451 | 74.58972 | 19909 ft | 395 kts | 338° |
| 2026-04-29 04:28 | 13.48902 | 74.58390 | 20353 ft | 390 kts | 338° |
| 2026-04-29 04:28 | 13.51347 | 74.57366 | 21344 ft | 371 kts | 336° |
| 2026-04-29 04:29 | 13.53722 | 74.56342 | 21920 ft | 372 kts | 336° |
| 2026-04-29 04:29 | 13.56114 | 74.55327 | 22427 ft | 371 kts | 337° |
| 2026-04-29 04:29 | 13.58499 | 74.54347 | 22940 ft | 371 kts | 337° |
| 2026-04-29 04:29 | 13.60945 | 74.53367 | 22959 ft | 386 kts | 338° |
| 2026-04-29 04:30 | 13.63434 | 74.52390 | 23042 ft | 396 kts | 338° |
| 2026-04-29 04:30 | 13.66049 | 74.51377 | 23114 ft | 408 kts | 338° |
| 2026-04-29 04:30 | 13.71497 | 74.49288 | 23248 ft | 427 kts | 338° |
| 2026-04-29 04:31 | 13.74312 | 74.48212 | 23349 ft | 435 kts | 338° |
| 2026-04-29 04:31 | 13.77182 | 74.47115 | 23396 ft | 443 kts | 338° |
| 2026-04-29 04:31 | 13.80091 | 74.46003 | 23439 ft | 450 kts | 338° |
| 2026-04-29 04:31 | 13.83046 | 74.44872 | 23479 ft | 456 kts | 338° |
| 2026-04-29 04:32 | 13.86036 | 74.43728 | 23554 ft | 461 kts | 338° |
| 2026-04-29 04:32 | 13.89051 | 74.42573 | 23734 ft | 462 kts | 338° |
| 2026-04-29 04:32 | 13.92065 | 74.41419 | 23965 ft | 462 kts | 338° |
| 2026-04-29 04:32 | 13.95081 | 74.40264 | 24180 ft | 463 kts | 338° |
| 2026-04-29 04:33 | 13.98100 | 74.39107 | 24362 ft | 464 kts | 338° |
| 2026-04-29 04:33 | 14.01114 | 74.37951 | 24548 ft | 465 kts | 338° |
| 2026-04-29 04:33 | 14.04149 | 74.36786 | 24718 ft | 466 kts | 338° |
| 2026-04-29 04:33 | 14.07187 | 74.35621 | 24904 ft | 467 kts | 337° |
| 2026-04-29 04:34 | 14.10199 | 74.34465 | 25142 ft | 466 kts | 337° |
| 2026-04-29 04:34 | 14.13272 | 74.33285 | 25334 ft | 467 kts | 337° |
| 2026-04-29 04:34 | 14.16283 | 74.32128 | 25491 ft | 468 kts | 337° |
| 2026-04-29 04:34 | 14.19340 | 74.30953 | 25627 ft | 470 kts | 337° |
| 2026-04-29 04:35 | 14.22409 | 74.29771 | 25786 ft | 471 kts | 336° |
| 2026-04-29 04:35 | 14.25421 | 74.28464 | 25940 ft | 470 kts | 333° |
| 2026-04-29 04:35 | 14.28381 | 74.27020 | 26108 ft | 471 kts | 332° |
| 2026-04-29 04:35 | 14.31315 | 74.25523 | 26261 ft | 471 kts | 331° |
| 2026-04-29 04:36 | 14.34253 | 74.24010 | 26407 ft | 472 kts | 331° |
| 2026-04-29 04:36 | 14.37202 | 74.22502 | 26547 ft | 473 kts | 331° |
| 2026-04-29 04:36 | 14.40165 | 74.21004 | 26695 ft | 474 kts | 332° |
| 2026-04-29 04:36 | 14.43128 | 74.19520 | 26869 ft | 474 kts | 332° |
| 2026-04-29 04:37 | 14.46101 | 74.18041 | 27039 ft | 474 kts | 332° |
| 2026-04-29 04:37 | 14.49079 | 74.16563 | 27177 ft | 475 kts | 332° |
| 2026-04-29 04:37 | 14.52062 | 74.15083 | 27299 ft | 476 kts | 332° |
| 2026-04-29 04:37 | 14.55053 | 74.13599 | 27481 ft | 475 kts | 332° |
| 2026-04-29 04:38 | 14.58030 | 74.12121 | 27694 ft | 474 kts | 331° |
| 2026-04-29 04:38 | 14.61004 | 74.10643 | 27913 ft | 473 kts | 331° |
| 2026-04-29 04:38 | 14.63969 | 74.09169 | 28101 ft | 473 kts | 331° |
| 2026-04-29 04:38 | 14.66932 | 74.07694 | 28295 ft | 473 kts | 331° |
| 2026-04-29 04:39 | 14.69891 | 74.06222 | 28487 ft | 472 kts | 331° |
| 2026-04-29 04:39 | 14.72853 | 74.04747 | 28701 ft | 471 kts | 331° |
| 2026-04-29 04:39 | 14.75806 | 74.03276 | 28911 ft | 471 kts | 331° |
| 2026-04-29 04:39 | 14.78762 | 74.01803 | 29117 ft | 470 kts | 331° |
| 2026-04-29 04:40 | 14.81706 | 74.00336 | 29331 ft | 470 kts | 331° |
| 2026-04-29 04:40 | 14.84466 | 73.98960 | 29508 ft | 470 kts | 331° |
| 2026-04-29 04:40 | 14.87372 | 73.97511 | 29693 ft | 470 kts | 331° |
| 2026-04-29 04:40 | 14.90294 | 73.96054 | 29891 ft | 469 kts | 331° |
| 2026-04-29 04:41 | 14.93267 | 73.94571 | 30111 ft | 468 kts | 331° |
| 2026-04-29 04:41 | 14.96194 | 73.93109 | 30315 ft | 467 kts | 331° |
| 2026-04-29 04:41 | 14.99116 | 73.91648 | 30511 ft | 466 kts | 331° |
| 2026-04-29 04:41 | 15.02022 | 73.90195 | 30705 ft | 465 kts | 331° |
| 2026-04-29 04:42 | 15.04939 | 73.88735 | 30920 ft | 464 kts | 331° |
| 2026-04-29 04:42 | 15.07845 | 73.87280 | 31163 ft | 463 kts | 331° |
| 2026-04-29 04:42 | 15.10736 | 73.85833 | 31449 ft | 460 kts | 331° |
| 2026-04-29 04:42 | 15.13612 | 73.84393 | 31696 ft | 459 kts | 331° |
| 2026-04-29 04:43 | 15.16484 | 73.82954 | 31898 ft | 459 kts | 331° |
| 2026-04-29 04:43 | 15.19360 | 73.81512 | 32099 ft | 458 kts | 331° |
| 2026-04-29 04:43 | 15.22225 | 73.80076 | 32334 ft | 457 kts | 331° |
| 2026-04-29 04:43 | 15.25083 | 73.78643 | 32586 ft | 455 kts | 331° |
| 2026-04-29 04:44 | 15.27935 | 73.77212 | 32827 ft | 454 kts | 331° |
| 2026-04-29 04:44 | 15.30776 | 73.75786 | 33060 ft | 454 kts | 331° |
| 2026-04-29 04:44 | 15.33613 | 73.74362 | 33274 ft | 453 kts | 331° |
| 2026-04-29 04:44 | 15.36412 | 73.72957 | 33511 ft | 452 kts | 331° |
| 2026-04-29 04:45 | 15.39268 | 73.71523 | 33770 ft | 450 kts | 330° |
| 2026-04-29 04:45 | 15.42048 | 73.70126 | 34047 ft | 447 kts | 330° |
| 2026-04-29 04:45 | 15.44848 | 73.68720 | 34268 ft | 446 kts | 331° |
| 2026-04-29 04:46 | 15.50442 | 73.65907 | 34472 ft | 448 kts | 331° |
| 2026-04-29 04:46 | 15.53256 | 73.64491 | 34633 ft | 448 kts | 331° |
| 2026-04-29 04:46 | 15.56058 | 73.63081 | 34829 ft | 447 kts | 331° |
| 2026-04-29 04:46 | 15.58858 | 73.61672 | 34998 ft | 447 kts | 332° |
| 2026-04-29 04:47 | 15.61658 | 73.60262 | 35128 ft | 447 kts | 332° |
| 2026-04-29 04:47 | 15.64459 | 73.58851 | 35262 ft | 448 kts | 332° |
| 2026-04-29 04:47 | 15.67261 | 73.57440 | 35431 ft | 447 kts | 332° |
| 2026-04-29 04:47 | 15.70059 | 73.56030 | 35585 ft | 447 kts | 332° |
| 2026-04-29 04:48 | 15.72855 | 73.54620 | 35732 ft | 447 kts | 332° |
| 2026-04-29 04:48 | 15.75653 | 73.53210 | 35884 ft | 447 kts | 332° |
| 2026-04-29 04:48 | 15.78454 | 73.51797 | 36041 ft | 446 kts | 332° |
| 2026-04-29 04:48 | 15.81254 | 73.50384 | 36183 ft | 446 kts | 332° |
| 2026-04-29 04:49 | 15.84044 | 73.48976 | 36311 ft | 447 kts | 332° |
| 2026-04-29 04:49 | 15.86839 | 73.47565 | 36457 ft | 446 kts | 332° |
| 2026-04-29 04:49 | 15.89634 | 73.46154 | 36600 ft | 446 kts | 332° |
| 2026-04-29 04:49 | 15.92388 | 73.44762 | 36724 ft | 446 kts | 332° |
| 2026-04-29 04:50 | 15.95189 | 73.43347 | 36844 ft | 446 kts | 332° |
| 2026-04-29 04:50 | 15.97984 | 73.41934 | 36963 ft | 446 kts | 333° |
| 2026-04-29 04:50 | 16.00770 | 73.40525 | 37073 ft | 447 kts | 333° |
| 2026-04-29 04:50 | 16.03567 | 73.39110 | 37187 ft | 447 kts | 333° |
| 2026-04-29 04:51 | 16.06353 | 73.37700 | 37331 ft | 446 kts | 333° |
| 2026-04-29 04:51 | 16.09145 | 73.36287 | 37488 ft | 445 kts | 333° |
| 2026-04-29 04:51 | 16.11925 | 73.34880 | 37587 ft | 445 kts | 333° |
| 2026-04-29 04:52 | 16.17499 | 73.32056 | 37733 ft | 445 kts | 333° |
| 2026-04-29 04:52 | 16.23073 | 73.29231 | 37833 ft | 446 kts | 333° |
| 2026-04-29 04:53 | 16.28668 | 73.26392 | 37848 ft | 447 kts | 333° |
| 2026-04-29 04:53 | 16.34264 | 73.23552 | 37846 ft | 448 kts | 333° |
| 2026-04-29 04:54 | 16.39862 | 73.20705 | 37849 ft | 448 kts | 334° |
| 2026-04-29 04:54 | 16.45437 | 73.17867 | 37843 ft | 448 kts | 333° |
| 2026-04-29 04:55 | 16.51046 | 73.15010 | 37843 ft | 448 kts | 333° |
| 2026-04-29 04:55 | 16.56646 | 73.12155 | 37843 ft | 448 kts | 333° |
| 2026-04-29 04:56 | 16.62194 | 73.09212 | 37843 ft | 447 kts | 331° |
| 2026-04-29 04:56 | 16.67614 | 73.06030 | 37841 ft | 446 kts | 330° |
| 2026-04-29 04:57 | 16.73010 | 73.02833 | 37846 ft | 446 kts | 330° |
| 2026-04-29 04:57 | 16.78241 | 72.99765 | 37838 ft | 445 kts | 330° |
| 2026-04-29 04:58 | 16.83639 | 72.96614 | 37839 ft | 443 kts | 330° |
| 2026-04-29 04:58 | 16.89021 | 72.93472 | 37833 ft | 443 kts | 331° |
| 2026-04-29 04:59 | 16.94388 | 72.90336 | 37837 ft | 442 kts | 331° |
| 2026-04-29 04:59 | 16.99745 | 72.87202 | 37838 ft | 441 kts | 331° |
| 2026-04-29 05:00 | 17.01103 | 72.86407 | 37846 ft | 441 kts | 331° |
| 2026-04-29 05:00 | 17.06488 | 72.83454 | 37834 ft | 440 kts | 340° |
| 2026-04-29 05:01 | 17.12428 | 72.82018 | 37835 ft | 441 kts | 354° |
| 2026-04-29 05:01 | 17.18563 | 72.82063 | 37837 ft | 441 kts | 0° |
| 2026-04-29 05:02 | 17.24696 | 72.82289 | 37840 ft | 441 kts | 0° |
| 2026-04-29 05:02 | 17.30834 | 72.82491 | 37839 ft | 441 kts | 0° |
| 2026-04-29 05:03 | 17.36975 | 72.82669 | 37849 ft | 441 kts | 0° |
| 2026-04-29 05:03 | 17.43114 | 72.82837 | 37835 ft | 442 kts | 360° |
| 2026-04-29 05:04 | 17.49259 | 72.83003 | 37838 ft | 442 kts | 360° |
| 2026-04-29 05:04 | 17.55415 | 72.83171 | 37837 ft | 442 kts | 0° |
| 2026-04-29 05:05 | 17.61560 | 72.83339 | 37837 ft | 442 kts | 0° |
| 2026-04-29 05:06 | 17.65449 | 72.83446 | 37835 ft | 442 kts | 360° |
| 2026-04-29 05:06 | 17.71607 | 72.83614 | 37839 ft | 442 kts | 0° |
| 2026-04-29 05:07 | 17.76717 | 72.83755 | 37838 ft | 442 kts | 0° |
| 2026-04-29 05:07 | 17.79375 | 72.83827 | 37838 ft | 442 kts | 0° |
| 2026-04-29 05:08 | 17.85520 | 72.83996 | 37838 ft | 441 kts | 0° |
| 2026-04-29 05:08 | 17.90616 | 72.84136 | 37839 ft | 441 kts | 0° |
| 2026-04-29 05:09 | 17.96758 | 72.84305 | 37841 ft | 441 kts | 0° |
| 2026-04-29 05:09 | 18.02872 | 72.84473 | 37837 ft | 441 kts | 0° |
| 2026-04-29 05:10 | 18.09013 | 72.84642 | 37841 ft | 440 kts | 0° |
| 2026-04-29 05:10 | 18.15137 | 72.84811 | 37842 ft | 440 kts | 0° |
| 2026-04-29 05:11 | 18.21264 | 72.84980 | 37842 ft | 440 kts | 0° |
| 2026-04-29 05:11 | 18.27378 | 72.85148 | 37842 ft | 440 kts | 0° |
| 2026-04-29 05:12 | 18.33498 | 72.85317 | 37850 ft | 439 kts | 360° |
| 2026-04-29 05:12 | 18.39616 | 72.85486 | 37844 ft | 439 kts | 360° |
| 2026-04-29 05:13 | 18.45724 | 72.85655 | 37840 ft | 439 kts | 360° |
| 2026-04-29 05:13 | 18.51833 | 72.85824 | 37841 ft | 439 kts | 360° |
| 2026-04-29 05:14 | 18.57942 | 72.85993 | 37846 ft | 439 kts | 360° |
| 2026-04-29 05:14 | 18.64042 | 72.86162 | 37835 ft | 439 kts | 360° |
| 2026-04-29 05:15 | 18.70139 | 72.86331 | 37843 ft | 438 kts | 360° |
| 2026-04-29 05:15 | 18.76187 | 72.86499 | 37839 ft | 438 kts | 360° |
| 2026-04-29 05:16 | 18.81967 | 72.86659 | 37836 ft | 437 kts | 360° |
| 2026-04-29 05:16 | 18.88049 | 72.86828 | 37835 ft | 437 kts | 360° |
| 2026-04-29 05:17 | 18.94122 | 72.86997 | 37836 ft | 436 kts | 360° |
| 2026-04-29 05:17 | 19.00062 | 72.87162 | 37888 ft | 436 kts | 360° |
| 2026-04-29 05:18 | 19.06133 | 72.87331 | 37883 ft | 436 kts | 360° |
| 2026-04-29 05:18 | 19.12194 | 72.87526 | 37884 ft | 436 kts | 0° |
| 2026-04-29 05:19 | 19.18211 | 72.87789 | 37885 ft | 436 kts | 0° |
| 2026-04-29 05:19 | 19.24309 | 72.88063 | 37872 ft | 436 kts | 0° |
| 2026-04-29 05:20 | 19.30345 | 72.88327 | 37846 ft | 436 kts | 0° |
| 2026-04-29 05:20 | 19.34239 | 72.88494 | 37845 ft | 436 kts | 0° |
| 2026-04-29 05:21 | 19.39769 | 72.88731 | 37840 ft | 436 kts | 0° |
| 2026-04-29 05:21 | 19.45730 | 72.88986 | 37835 ft | 437 kts | 0° |
| 2026-04-29 05:22 | 19.51543 | 72.89234 | 37839 ft | 437 kts | 0° |
| 2026-04-29 05:22 | 19.57626 | 72.89495 | 37841 ft | 437 kts | 0° |
| 2026-04-29 05:23 | 19.63705 | 72.89756 | 37833 ft | 438 kts | 0° |
| 2026-04-29 05:23 | 19.69800 | 72.90017 | 37839 ft | 438 kts | 0° |
| 2026-04-29 05:24 | 19.75881 | 72.90279 | 37832 ft | 437 kts | 0° |
| 2026-04-29 05:24 | 19.81963 | 72.90540 | 37832 ft | 437 kts | 0° |
| 2026-04-29 05:25 | 19.88048 | 72.90802 | 37839 ft | 437 kts | 0° |
| 2026-04-29 05:25 | 19.94122 | 72.91063 | 37830 ft | 437 kts | 0° |
| 2026-04-29 05:26 | 20.00181 | 72.91324 | 37842 ft | 436 kts | 360° |
| 2026-04-29 05:26 | 20.06243 | 72.91586 | 37834 ft | 436 kts | 360° |
| 2026-04-29 05:27 | 20.12261 | 72.91845 | 37824 ft | 435 kts | 360° |
| 2026-04-29 05:27 | 20.19233 | 72.92147 | 37825 ft | 435 kts | 360° |
| 2026-04-29 05:28 | 20.25279 | 72.92408 | 37826 ft | 434 kts | 360° |
| 2026-04-29 05:28 | 20.31322 | 72.92669 | 37843 ft | 434 kts | 359° |
| 2026-04-29 05:29 | 20.37358 | 72.92931 | 37826 ft | 434 kts | 359° |
| 2026-04-29 05:29 | 20.43382 | 72.93192 | 37825 ft | 433 kts | 359° |
| 2026-04-29 05:30 | 20.49408 | 72.93453 | 37827 ft | 433 kts | 359° |
| 2026-04-29 05:30 | 20.55431 | 72.93714 | 37830 ft | 432 kts | 359° |
| 2026-04-29 05:31 | 20.61268 | 72.93968 | 37838 ft | 432 kts | 359° |
| 2026-04-29 05:31 | 20.67250 | 72.94228 | 37819 ft | 432 kts | 359° |
| 2026-04-29 05:32 | 20.73259 | 72.94489 | 37823 ft | 432 kts | 359° |
| 2026-04-29 05:32 | 20.79194 | 72.94736 | 37822 ft | 432 kts | 359° |
| 2026-04-29 05:33 | 20.85204 | 72.94958 | 37821 ft | 432 kts | 359° |
| 2026-04-29 05:33 | 20.91206 | 72.95178 | 37833 ft | 432 kts | 359° |
| 2026-04-29 05:34 | 20.97069 | 72.95397 | 37834 ft | 432 kts | 358° |
| 2026-04-29 05:34 | 21.03061 | 72.95622 | 37822 ft | 431 kts | 358° |
| 2026-04-29 05:35 | 21.09060 | 72.95848 | 37824 ft | 431 kts | 358° |
| 2026-04-29 05:35 | 21.15057 | 72.96074 | 37843 ft | 431 kts | 358° |
| 2026-04-29 05:36 | 21.21049 | 72.96317 | 37841 ft | 431 kts | 359° |
| 2026-04-29 05:36 | 21.27037 | 72.96636 | 37838 ft | 431 kts | 359° |
| 2026-04-29 05:37 | 21.33024 | 72.96963 | 37830 ft | 431 kts | 359° |
| 2026-04-29 05:37 | 21.39011 | 72.97281 | 37825 ft | 431 kts | 359° |
| 2026-04-29 05:38 | 21.44998 | 72.97595 | 37820 ft | 431 kts | 359° |
| 2026-04-29 05:38 | 21.50987 | 72.97910 | 37823 ft | 431 kts | 359° |
| 2026-04-29 05:39 | 21.56976 | 72.98241 | 37836 ft | 431 kts | 1° |
| 2026-04-29 05:39 | 21.62880 | 72.99650 | 37830 ft | 438 kts | 12° |
| 2026-04-29 05:40 | 21.68715 | 73.01591 | 37817 ft | 438 kts | 12° |
| 2026-04-29 05:40 | 21.74551 | 73.03509 | 37814 ft | 438 kts | 12° |
| 2026-04-29 05:41 | 21.80385 | 73.05404 | 37816 ft | 438 kts | 12° |
| 2026-04-29 05:41 | 21.86221 | 73.07294 | 37816 ft | 438 kts | 12° |
| 2026-04-29 05:42 | 21.92062 | 73.09186 | 37823 ft | 438 kts | 11° |
| 2026-04-29 05:42 | 21.97862 | 73.11067 | 37814 ft | 438 kts | 11° |
| 2026-04-29 05:43 | 22.03684 | 73.12957 | 37817 ft | 438 kts | 11° |
| 2026-04-29 05:43 | 22.09526 | 73.14855 | 37821 ft | 438 kts | 11° |
| 2026-04-29 05:44 | 22.14415 | 73.16446 | 37823 ft | 438 kts | 11° |
| 2026-04-29 05:44 | 22.18264 | 73.17698 | 37826 ft | 438 kts | 11° |
| 2026-04-29 05:45 | 22.24096 | 73.19598 | 37839 ft | 438 kts | 11° |
| 2026-04-29 05:45 | 22.29935 | 73.21501 | 37830 ft | 438 kts | 11° |
| 2026-04-29 05:46 | 22.35790 | 73.23376 | 37830 ft | 437 kts | 10° |
| 2026-04-29 05:46 | 22.40672 | 73.24775 | 37830 ft | 436 kts | 9° |
| 2026-04-29 05:47 | 22.46737 | 73.26473 | 37826 ft | 437 kts | 9° |
| 2026-04-29 05:47 | 22.52622 | 73.28147 | 37809 ft | 437 kts | 9° |
| 2026-04-29 05:48 | 22.58504 | 73.29837 | 37811 ft | 437 kts | 9° |
| 2026-04-29 05:48 | 22.63396 | 73.31247 | 37811 ft | 438 kts | 9° |
| 2026-04-29 05:49 | 22.70278 | 73.33232 | 37806 ft | 438 kts | 9° |
| 2026-04-29 05:49 | 22.75174 | 73.34645 | 37801 ft | 438 kts | 9° |
| 2026-04-29 05:50 | 22.79115 | 73.35783 | 37807 ft | 438 kts | 9° |
| 2026-04-29 05:50 | 22.81354 | 73.36430 | 37807 ft | 438 kts | 9° |
| 2026-04-29 05:51 | 22.82344 | 73.36716 | 37804 ft | 438 kts | 9° |
| 2026-04-29 05:53 | 22.89524 | 73.38795 | 37810 ft | 438 kts | 9° |
| 2026-04-29 05:54 | 22.95413 | 73.40507 | 37805 ft | 438 kts | 9° |
| 2026-04-29 05:54 | 23.04607 | 73.43186 | 37796 ft | 439 kts | 9° |
| 2026-04-29 05:55 | 23.16403 | 73.46628 | 37803 ft | 438 kts | 9° |
| 2026-04-29 05:55 | 23.28207 | 73.50078 | 37801 ft | 439 kts | 9° |
| 2026-04-29 05:56 | 23.39902 | 73.53502 | 37796 ft | 439 kts | 9° |
| 2026-04-29 05:56 | 23.45763 | 73.55220 | 37800 ft | 438 kts | 9° |
| 2026-04-29 05:57 | 23.46756 | 73.55512 | 37801 ft | 439 kts | 9° |
| 2026-04-29 05:57 | 23.52101 | 73.57081 | 37807 ft | 439 kts | 9° |
| 2026-04-29 05:58 | 23.57989 | 73.58810 | 37797 ft | 438 kts | 9° |
| 2026-04-29 05:58 | 23.63875 | 73.60541 | 37798 ft | 438 kts | 9° |
| 2026-04-29 05:59 | 23.69758 | 73.62273 | 37793 ft | 438 kts | 9° |
| 2026-04-29 05:59 | 23.75637 | 73.64005 | 37795 ft | 438 kts | 9° |
| 2026-04-29 06:00 | 23.81520 | 73.65739 | 37800 ft | 437 kts | 8° |
| 2026-04-29 06:00 | 23.87396 | 73.67474 | 37801 ft | 437 kts | 8° |
| 2026-04-29 06:01 | 23.93269 | 73.69209 | 37781 ft | 437 kts | 8° |
| 2026-04-29 06:01 | 23.99138 | 73.70945 | 37788 ft | 436 kts | 8° |
| 2026-04-29 06:02 | 24.04986 | 73.72674 | 37785 ft | 436 kts | 8° |
| 2026-04-29 06:02 | 24.10857 | 73.74403 | 37776 ft | 436 kts | 8° |
| 2026-04-29 06:03 | 24.16717 | 73.76131 | 37785 ft | 436 kts | 8° |
| 2026-04-29 06:03 | 24.22581 | 73.77862 | 37788 ft | 436 kts | 8° |
| 2026-04-29 06:04 | 24.28441 | 73.79594 | 37774 ft | 436 kts | 8° |
| 2026-04-29 06:04 | 24.34295 | 73.81327 | 37783 ft | 436 kts | 8° |
| 2026-04-29 06:05 | 24.40151 | 73.83061 | 37774 ft | 436 kts | 8° |
| 2026-04-29 06:05 | 24.46015 | 73.84800 | 37778 ft | 436 kts | 8° |
| 2026-04-29 06:06 | 24.46435 | 73.84924 | 37780 ft | 436 kts | 8° |
| 2026-04-29 06:06 | 24.46467 | 73.84934 | 37770 ft | 436 kts | 8° |
| 2026-04-29 06:07 | 24.52152 | 73.86621 | 37775 ft | 436 kts | 8° |
| 2026-04-29 06:07 | 24.58006 | 73.88360 | 37774 ft | 436 kts | 8° |
| 2026-04-29 06:08 | 24.62513 | 73.90013 | 37823 ft | 445 kts | 18° |
| 2026-04-29 06:08 | 24.67961 | 73.93395 | 37823 ft | 450 kts | 23° |
| 2026-04-29 06:09 | 24.73362 | 73.96890 | 37826 ft | 450 kts | 23° |
| 2026-04-29 06:09 | 24.78577 | 74.00238 | 37825 ft | 450 kts | 22° |
| 2026-04-29 06:10 | 24.84005 | 74.03700 | 37801 ft | 451 kts | 22° |
| 2026-04-29 06:10 | 24.89439 | 74.07162 | 37768 ft | 451 kts | 22° |
| 2026-04-29 06:11 | 24.94867 | 74.10623 | 37762 ft | 451 kts | 22° |
| 2026-04-29 06:11 | 25.00285 | 74.14083 | 37764 ft | 451 kts | 22° |
| 2026-04-29 06:12 | 25.05709 | 74.17549 | 37756 ft | 451 kts | 22° |
| 2026-04-29 06:12 | 25.11142 | 74.21026 | 37777 ft | 451 kts | 22° |
| 2026-04-29 06:13 | 25.16576 | 74.24506 | 37760 ft | 451 kts | 22° |
| 2026-04-29 06:13 | 25.22009 | 74.27990 | 37755 ft | 452 kts | 22° |
| 2026-04-29 06:14 | 25.27442 | 74.31477 | 37755 ft | 452 kts | 22° |
| 2026-04-29 06:14 | 25.32888 | 74.34976 | 37750 ft | 452 kts | 22° |
| 2026-04-29 06:15 | 25.38334 | 74.38480 | 37749 ft | 453 kts | 22° |
| 2026-04-29 06:15 | 25.43745 | 74.41963 | 37766 ft | 453 kts | 22° |
| 2026-04-29 06:16 | 25.45589 | 74.43151 | 37758 ft | 454 kts | 22° |
| 2026-04-29 06:16 | 25.46236 | 74.43568 | 37755 ft | 454 kts | 22° |
| 2026-04-29 06:17 | 25.50576 | 74.46367 | 37750 ft | 454 kts | 22° |
| 2026-04-29 06:17 | 25.55486 | 74.49535 | 37740 ft | 454 kts | 22° |
| 2026-04-29 06:18 | 25.60947 | 74.53064 | 37746 ft | 455 kts | 22° |
| 2026-04-29 06:18 | 25.66410 | 74.56598 | 37739 ft | 455 kts | 22° |
| 2026-04-29 06:19 | 25.71876 | 74.60136 | 37743 ft | 455 kts | 22° |
| 2026-04-29 06:19 | 25.77303 | 74.63654 | 37741 ft | 455 kts | 22° |
| 2026-04-29 06:20 | 25.82774 | 74.67203 | 37745 ft | 455 kts | 22° |
| 2026-04-29 06:20 | 25.88240 | 74.70754 | 37745 ft | 455 kts | 22° |
| 2026-04-29 06:21 | 25.93669 | 74.74284 | 37747 ft | 455 kts | 22° |
| 2026-04-29 06:21 | 25.99133 | 74.77841 | 37747 ft | 455 kts | 22° |
| 2026-04-29 06:22 | 26.04580 | 74.81391 | 37747 ft | 455 kts | 22° |
| 2026-04-29 06:22 | 26.10047 | 74.84957 | 37755 ft | 455 kts | 22° |
| 2026-04-29 06:23 | 26.15520 | 74.88531 | 37748 ft | 455 kts | 22° |
| 2026-04-29 06:23 | 26.20986 | 74.92105 | 37749 ft | 455 kts | 22° |
| 2026-04-29 06:24 | 26.26455 | 74.95686 | 37753 ft | 455 kts | 22° |
| 2026-04-29 06:24 | 26.31916 | 74.99264 | 37752 ft | 455 kts | 22° |
| 2026-04-29 06:25 | 26.36280 | 75.02127 | 37744 ft | 455 kts | 22° |
| 2026-04-29 06:25 | 26.42663 | 75.06319 | 37761 ft | 456 kts | 22° |
| 2026-04-29 06:26 | 26.47209 | 75.09299 | 37744 ft | 456 kts | 21° |
| 2026-04-29 06:26 | 26.53580 | 75.13459 | 37738 ft | 456 kts | 21° |
| 2026-04-29 06:27 | 26.58146 | 75.16445 | 37737 ft | 456 kts | 21° |
| 2026-04-29 06:27 | 26.63630 | 75.20036 | 37738 ft | 457 kts | 22° |
| 2026-04-29 06:28 | 26.70013 | 75.24223 | 37761 ft | 457 kts | 21° |
| 2026-04-29 06:28 | 26.74608 | 75.27241 | 37737 ft | 457 kts | 21° |
| 2026-04-29 06:29 | 26.79793 | 75.30649 | 37734 ft | 457 kts | 21° |
| 2026-04-29 06:29 | 26.85253 | 75.34243 | 37625 ft | 460 kts | 21° |
| 2026-04-29 06:30 | 26.88033 | 75.36068 | 37103 ft | 465 kts | 22° |
| 2026-04-29 06:30 | 26.90327 | 75.37579 | 36771 ft | 464 kts | 22° |
| 2026-04-29 06:30 | 26.93098 | 75.39410 | 36315 ft | 461 kts | 22° |
| 2026-04-29 06:31 | 26.95818 | 75.41208 | 35896 ft | 460 kts | 22° |
| 2026-04-29 06:31 | 26.98578 | 75.43031 | 35493 ft | 461 kts | 23° |
| 2026-04-29 06:31 | 27.01371 | 75.44875 | 35108 ft | 462 kts | 23° |
| 2026-04-29 06:31 | 27.04112 | 75.46684 | 34701 ft | 464 kts | 24° |
| 2026-04-29 06:32 | 27.06901 | 75.48527 | 34307 ft | 467 kts | 24° |
| 2026-04-29 06:32 | 27.09720 | 75.50391 | 33916 ft | 470 kts | 24° |
| 2026-04-29 06:32 | 27.12531 | 75.52251 | 33501 ft | 473 kts | 25° |
| 2026-04-29 06:32 | 27.15370 | 75.54132 | 33036 ft | 475 kts | 25° |
| 2026-04-29 06:33 | 27.18226 | 75.56025 | 32590 ft | 478 kts | 25° |
| 2026-04-29 06:33 | 27.20972 | 75.57847 | 32170 ft | 479 kts | 25° |
| 2026-04-29 06:33 | 27.23853 | 75.59760 | 31733 ft | 481 kts | 25° |
| 2026-04-29 06:33 | 27.26741 | 75.61679 | 31303 ft | 482 kts | 26° |
| 2026-04-29 06:34 | 27.29624 | 75.63595 | 30874 ft | 483 kts | 26° |
| 2026-04-29 06:34 | 27.32526 | 75.65524 | 30467 ft | 486 kts | 26° |
| 2026-04-29 06:34 | 27.35446 | 75.67467 | 30058 ft | 487 kts | 27° |
| 2026-04-29 06:34 | 27.38347 | 75.69399 | 29615 ft | 484 kts | 27° |
| 2026-04-29 06:35 | 27.41241 | 75.71329 | 29123 ft | 482 kts | 27° |
| 2026-04-29 06:35 | 27.44126 | 75.73253 | 28643 ft | 480 kts | 27° |
| 2026-04-29 06:35 | 27.46986 | 75.75162 | 28170 ft | 477 kts | 27° |
| 2026-04-29 06:35 | 27.49836 | 75.77065 | 27707 ft | 474 kts | 27° |
| 2026-04-29 06:36 | 27.52663 | 75.78952 | 27233 ft | 471 kts | 27° |
| 2026-04-29 06:36 | 27.55478 | 75.80832 | 26730 ft | 469 kts | 27° |
| 2026-04-29 06:36 | 27.58276 | 75.82703 | 26235 ft | 466 kts | 27° |
| 2026-04-29 06:36 | 27.61049 | 75.84558 | 25747 ft | 463 kts | 27° |
| 2026-04-29 06:37 | 27.63848 | 75.86313 | 25270 ft | 457 kts | 21° |
| 2026-04-29 06:37 | 27.66790 | 75.87559 | 24816 ft | 448 kts | 12° |
| 2026-04-29 06:37 | 27.69772 | 75.88531 | 24358 ft | 444 kts | 11° |
| 2026-04-29 06:37 | 27.72410 | 75.89380 | 23951 ft | 440 kts | 11° |
| 2026-04-29 06:38 | 27.75305 | 75.90319 | 23514 ft | 437 kts | 11° |
| 2026-04-29 06:38 | 27.78209 | 75.91274 | 23029 ft | 433 kts | 11° |
| 2026-04-29 06:38 | 27.81096 | 75.92235 | 22513 ft | 430 kts | 12° |
| 2026-04-29 06:38 | 27.83960 | 75.93198 | 21992 ft | 427 kts | 12° |
| 2026-04-29 06:39 | 27.86790 | 75.94153 | 21478 ft | 423 kts | 12° |
| 2026-04-29 06:39 | 27.89606 | 75.95106 | 20989 ft | 420 kts | 12° |
| 2026-04-29 06:39 | 27.92401 | 75.96052 | 20501 ft | 417 kts | 12° |
| 2026-04-29 06:39 | 27.95172 | 75.96991 | 20031 ft | 414 kts | 12° |
| 2026-04-29 06:40 | 27.97928 | 75.97925 | 19548 ft | 412 kts | 12° |
| 2026-04-29 06:40 | 28.00657 | 75.98849 | 19099 ft | 409 kts | 12° |
| 2026-04-29 06:40 | 28.03382 | 75.99773 | 18631 ft | 407 kts | 12° |
| 2026-04-29 06:40 | 28.05955 | 76.00645 | 18206 ft | 405 kts | 12° |
| 2026-04-29 06:41 | 28.07739 | 76.01251 | 17895 ft | 403 kts | 12° |
| 2026-04-29 06:41 | 28.09922 | 76.01992 | 17475 ft | 401 kts | 13° |
| 2026-04-29 06:41 | 28.12590 | 76.02898 | 16967 ft | 399 kts | 13° |
| 2026-04-29 06:41 | 28.15242 | 76.03799 | 16469 ft | 396 kts | 13° |
| 2026-04-29 06:42 | 28.17874 | 76.04694 | 15976 ft | 393 kts | 13° |
| 2026-04-29 06:42 | 28.20470 | 76.05640 | 15477 ft | 392 kts | 20° |
| 2026-04-29 06:42 | 28.22563 | 76.07160 | 15050 ft | 396 kts | 40° |
| 2026-04-29 06:42 | 28.24286 | 76.09600 | 14645 ft | 396 kts | 59° |
| 2026-04-29 06:43 | 28.25522 | 76.12374 | 14246 ft | 392 kts | 62° |
| 2026-04-29 06:43 | 28.26711 | 76.15141 | 13810 ft | 386 kts | 63° |
| 2026-04-29 06:43 | 28.27864 | 76.17821 | 13333 ft | 380 kts | 62° |
| 2026-04-29 06:43 | 28.28649 | 76.19632 | 12984 ft | 376 kts | 62° |
| 2026-04-29 06:44 | 28.29880 | 76.22447 | 12448 ft | 370 kts | 62° |
| 2026-04-29 06:44 | 28.31025 | 76.25049 | 11950 ft | 366 kts | 62° |
| 2026-04-29 06:44 | 28.32119 | 76.27527 | 11480 ft | 361 kts | 62° |
| 2026-04-29 06:45 | 28.33237 | 76.30057 | 11001 ft | 357 kts | 62° |
| 2026-04-29 06:45 | 28.34345 | 76.32565 | 10529 ft | 353 kts | 62° |
| 2026-04-29 06:45 | 28.35434 | 76.35033 | 10053 ft | 346 kts | 62° |
| 2026-04-29 06:45 | 28.36499 | 76.37448 | 9593 ft | 339 kts | 62° |
| 2026-04-29 06:46 | 28.37539 | 76.39806 | 9205 ft | 328 kts | 62° |
| 2026-04-29 06:46 | 28.38546 | 76.42093 | 8827 ft | 320 kts | 62° |
| 2026-04-29 06:46 | 28.39531 | 76.44330 | 8462 ft | 312 kts | 62° |
| 2026-04-29 06:46 | 28.40485 | 76.46499 | 8156 ft | 303 kts | 62° |
| 2026-04-29 06:47 | 28.41416 | 76.48616 | 7915 ft | 297 kts | 62° |
| 2026-04-29 06:47 | 28.42341 | 76.50718 | 7692 ft | 299 kts | 63° |
| 2026-04-29 06:47 | 28.43277 | 76.52848 | 7472 ft | 303 kts | 63° |
| 2026-04-29 06:47 | 28.44221 | 76.54997 | 7235 ft | 303 kts | 63° |
| 2026-04-29 06:48 | 28.45157 | 76.57129 | 7000 ft | 300 kts | 63° |
| 2026-04-29 06:48 | 28.46081 | 76.59235 | 6763 ft | 296 kts | 64° |
| 2026-04-29 06:48 | 28.46886 | 76.61073 | 6553 ft | 293 kts | 64° |
| 2026-04-29 06:48 | 28.47130 | 76.61628 | 6497 ft | 293 kts | 64° |
| 2026-04-29 06:49 | 28.48033 | 76.63690 | 6285 ft | 289 kts | 64° |
| 2026-04-29 06:49 | 28.48914 | 76.65703 | 6108 ft | 287 kts | 64° |
| 2026-04-29 06:49 | 28.49804 | 76.67737 | 5919 ft | 289 kts | 64° |
| 2026-04-29 06:49 | 28.50702 | 76.69790 | 5787 ft | 293 kts | 64° |
| 2026-04-29 06:50 | 28.51615 | 76.71879 | 5756 ft | 294 kts | 64° |
| 2026-04-29 06:50 | 28.52571 | 76.73913 | 5718 ft | 291 kts | 55° |
| 2026-04-29 06:50 | 28.53870 | 76.75673 | 5740 ft | 290 kts | 47° |
| 2026-04-29 06:50 | 28.55280 | 76.77332 | 5662 ft | 294 kts | 46° |
| 2026-04-29 06:51 | 28.56250 | 76.78469 | 5494 ft | 297 kts | 47° |
| 2026-04-29 06:51 | 28.57755 | 76.80279 | 5242 ft | 295 kts | 48° |
| 2026-04-29 06:51 | 28.59137 | 76.81977 | 4997 ft | 291 kts | 49° |
| 2026-04-29 06:51 | 28.60497 | 76.83664 | 4728 ft | 288 kts | 50° |
| 2026-04-29 06:52 | 28.61501 | 76.85589 | 4409 ft | 283 kts | 78° |
| 2026-04-29 06:52 | 28.61511 | 76.87779 | 4166 ft | 274 kts | 102° |
| 2026-04-29 06:52 | 28.61068 | 76.89836 | 3862 ft | 261 kts | 106° |
| 2026-04-29 06:52 | 28.60599 | 76.91767 | 3564 ft | 246 kts | 106° |
| 2026-04-29 06:53 | 28.60167 | 76.93591 | 3271 ft | 231 kts | 106° |
| 2026-04-29 06:53 | 28.59768 | 76.95310 | 2981 ft | 217 kts | 106° |
| 2026-04-29 06:53 | 28.59400 | 76.96905 | 2703 ft | 199 kts | 106° |
| 2026-04-29 06:53 | 28.59063 | 76.98361 | 2473 ft | 181 kts | 106° |
| 2026-04-29 06:54 | 28.58764 | 76.99653 | 2267 ft | 159 kts | 107° |
| 2026-04-29 06:54 | 28.58505 | 77.00770 | 2083 ft | 148 kts | 106° |
| 2026-04-29 06:54 | 28.58235 | 77.01935 | 1923 ft | 156 kts | 107° |
| 2026-04-29 06:54 | 28.57953 | 77.03153 | 1713 ft | 159 kts | 106° |
| 2026-04-29 06:55 | 28.57758 | 77.04000 | 1546 ft | 154 kts | 106° |
| 2026-04-29 06:55 | 28.57493 | 77.05149 | 1351 ft | 147 kts | 105° |
| 2026-04-29 06:55 | 28.57232 | 77.06255 | 1156 ft | 144 kts | 104° |
| 2026-04-29 06:56 | 28.56966 | 77.07384 | 994 ft | 152 kts | 101° |
| 2026-04-29 06:56 | 28.56716 | 77.08527 | 789 ft | 150 kts | 103° |
| 2026-04-29 06:56 | 28.56459 | 77.09636 | 751 ft | 132 kts | 104° |
| 2026-04-29 06:56 | 28.56260 | 77.10506 | 750 ft | 93 kts | 105° |
| 2026-04-29 06:57 | 28.56157 | 77.10950 | 749 ft | 47 kts | 104° |
| 2026-04-29 06:57 | 28.56075 | 77.11304 | 745 ft | 44 kts | 104° |
| 2026-04-29 06:57 | 28.56061 | 77.11544 | 746 ft | 23 kts | 32° |
| 2026-04-29 06:57 | 28.56190 | 77.11504 | 748 ft | 16 kts | 319° |
| 2026-04-29 06:58 | 28.56215 | 77.11384 | 748 ft | 15 kts | 280° |
| 2026-04-29 06:58 | 28.56250 | 77.11272 | 749 ft | 15 kts | 310° |
| 2026-04-29 06:58 | 28.56321 | 77.11269 | 747 ft | 9 kts | 11° |
| 2026-04-29 06:58 | 28.56369 | 77.11259 | 749 ft | 7 kts | 284° |
| 2026-04-29 06:59 | 28.56376 | 77.11216 | 749 ft | 4 kts | 282° |
| 2026-04-29 06:59 | 28.56377 | 77.11211 | 749 ft | 0 kts | 282° |